Airfield :
LOGIN :

Register | Disclaimer

   EN    FR    IT 

 










Legend :    VFR   Marginal VFR   IFR   Intensive IFR   Very Intensive IFR
Visi :
Ceiling :
>= 8 km
>= 3000ft
5 to 8 km
1000 to 3000 ft
1500m to 5 km
500 to 1000 ft
800 to 1500m
200 to 500 ft
< 800m
< 200 ft
Symbols :   Thunderstorms  Fog  Heavy snow  Heavy precipitations  Wind > 20 kt
SIGMETs :     Misc.  Thunderstorms  Icing  Turbulence  Mountain Waves  Volcanic Ashes






- Airport Elevation : 181 ft


ESIB - Satenas AB

CURRENT METAR :
  • 121750Z 15010KT CAVOK 02/02 Q0992

EXPIRED METARs :
  • 121720Z AUTO 15008KT 9999 NCD 02/02 Q0992
  • 121650Z 14008KT 9999 FEW035 02/02 Q0993
  • 121620Z 16005KT 9999 FEW015 SCT035 02/02 Q0993
  • 121550Z 16008KT 9999 FEW020 SCT045 03/03 Q0993
  • 121520Z 17007KT 9999 FEW018 SCT038 03/03 Q0993

TAF TAF ESIB
Valid from the 12 at 18:00 until the 12 at 21:00 UTC


121730Z 1218/1221 17008KT 9999 FEW013 SCT025
PROB40 1218/1221 4000 SHRA BKN005 BKN015TCU RMK MIL



MET'MAP, your aeronautical weather chart ! - Copyright ORBIFLY December 2007 - Disclaimer

ORBIFLY MET'MAP TEAM :

Programming & Development : Alexandra Zaïnal
Concept & original design : Baudouin d'Aumeries
Assistance for programming : Marc-Olivier Méhu
Technical & hardware support : Manuel Goepfert

Contact : metmap@orbifly.com




SOURCES & CREDITS :

   NOAA